Time,TemperatureF,DewpointF,PressureIn,WindDirection,WindDirectionDegrees,WindSpeedMPH,WindSpeedGustMPH,Humidity,HourlyPrecipIn,Conditions,Clouds,dailyrainin,SoftwareType,DateUTC
2013-03-25 00:00:00,43.5,28.0,30.09,East,89,0.0,3.0,55,0.00,,,0.00,weatherlink.com 1.10,2013-03-25 07:00:00,
2013-03-25 00:15:00,42.7,29.0,30.09,East,89,0.0,0.0,58,0.00,,,0.00,weatherlink.com 1.10,2013-03-25 07:15:00,
2013-03-25 00:30:00,42.3,28.0,30.09,East,89,0.0,1.0,58,0.00,,,0.00,weatherlink.com 1.10,2013-03-25 07:30:00,
2013-03-25 00:45:00,41.8,29.0,30.09,East,89,0.0,2.0,61,0.00,,,0.00,weatherlink.com 1.10,2013-03-25 07:45:00,
2013-03-25 01:00:00,41.0,29.0,30.08,East,89,0.0,1.0,63,0.00,,,0.00,weatherlink.com 1.10,2013-03-25 08:00:00,
2013-03-25 01:15:00,40.4,29.0,30.08,East,89,2.0,3.0,65,0.00,,,0.00,weatherlink.com 1.10,2013-03-25 08:15:00,
2013-03-25 01:30:00,39.9,29.0,30.07,East,89,1.0,5.0,66,0.00,,,0.00,weatherlink.com 1.10,2013-03-25 08:30:00,
2013-03-25 01:45:00,39.4,30.0,30.07,East,89,0.0,2.0,68,0.00,,,0.00,weatherlink.com 1.10,2013-03-25 08:45:00,
2013-03-25 02:00:00,39.1,30.0,30.07,East,89,3.0,3.0,69,0.00,,,0.00,weatherlink.com 1.10,2013-03-25 09:00:00,
2013-03-25 02:15:00,38.7,30.0,30.07,East,89,2.0,2.0,71,0.00,,,0.00,weatherlink.com 1.10,2013-03-25 09:15:00,
2013-03-25 02:31:00,37.9,30.0,30.06,East,89,0.0,2.0,72,0.00,,,0.00,weatherlink.com 1.10,2013-03-25 09:31:00,
2013-03-25 02:46:00,37.6,30.0,30.06,East,89,0.0,2.0,73,0.00,,,0.00,weatherlink.com 1.10,2013-03-25 09:46:00,
2013-03-25 03:01:00,37.5,30.0,30.06,East,89,0.0,1.0,73,0.00,,,0.00,weatherlink.com 1.10,2013-03-25 10:01:00,
2013-03-25 03:16:00,37.4,29.0,30.05,East,89,0.0,0.0,73,0.00,,,0.00,weatherlink.com 1.10,2013-03-25 10:16:00,
2013-03-25 03:31:00,36.9,29.0,30.05,East,89,0.0,0.0,74,0.00,,,0.00,weatherlink.com 1.10,2013-03-25 10:31:00,
2013-03-25 03:46:00,37.0,29.0,30.05,East,89,0.0,2.0,74,0.00,,,0.00,weatherlink.com 1.10,2013-03-25 10:46:00,
2013-03-25 04:01:00,36.6,29.0,30.05,ENE,62,2.0,3.0,75,0.00,,,0.00,weatherlink.com 1.10,2013-03-25 11:01:00,
2013-03-25 04:31:00,37.2,29.0,30.05,NE,34,2.0,3.0,72,0.00,,,0.00,weatherlink.com 1.10,2013-03-25 11:31:00,
2013-03-25 04:46:00,37.1,29.0,30.04,NE,34,1.0,3.0,72,0.00,,,0.00,weatherlink.com 1.10,2013-03-25 11:46:00,
2013-03-25 05:31:00,37.0,29.0,30.04,NE,34,0.0,0.0,72,0.00,,,0.00,weatherlink.com 1.10,2013-03-25 12:31:00,
2013-03-25 06:01:00,36.3,29.0,30.04,NE,34,0.0,0.0,74,0.00,,,0.00,weatherlink.com 1.10,2013-03-25 13:01:00,
2013-03-25 06:16:00,35.9,29.0,30.04,NE,34,0.0,2.0,75,0.00,,,0.00,weatherlink.com 1.10,2013-03-25 13:16:00,
2013-03-25 06:31:00,35.2,29.0,30.04,NE,34,0.0,2.0,77,0.00,,,0.00,weatherlink.com 1.10,2013-03-25 13:31:00,
2013-03-25 06:46:00,34.6,28.0,30.04,NE,34,0.0,1.0,78,0.00,,,0.00,weatherlink.com 1.10,2013-03-25 13:46:00,
2013-03-25 07:16:00,35.5,28.0,30.03,NE,34,1.0,2.0,75,0.00,,,0.00,weatherlink.com 1.10,2013-03-25 14:16:00,
2013-03-25 07:31:00,35.9,28.0,30.04,NE,34,2.0,4.0,74,0.00,,,0.00,weatherlink.com 1.10,2013-03-25 14:31:00,
2013-03-25 07:46:00,36.4,29.0,30.03,NE,34,0.0,4.0,73,0.00,,,0.00,weatherlink.com 1.10,2013-03-25 14:46:00,
2013-03-25 08:16:00,38.2,30.0,30.03,NE,34,2.0,3.0,71,0.00,,,0.00,weatherlink.com 1.10,2013-03-25 15:16:00,
2013-03-25 08:31:00,39.2,30.0,30.04,NE,34,1.0,5.0,69,0.00,,,0.00,weatherlink.com 1.10,2013-03-25 15:31:00,
2013-03-25 08:46:00,40.6,31.0,30.03,NE,34,0.0,1.0,69,0.00,,,0.00,weatherlink.com 1.10,2013-03-25 15:46:00,
2013-03-25 09:01:00,41.8,31.0,30.03,NE,34,2.0,4.0,65,0.00,,,0.00,weatherlink.com 1.10,2013-03-25 16:01:00,
2013-03-25 09:16:00,42.7,30.0,30.03,North,11,1.0,5.0,61,0.00,,,0.00,weatherlink.com 1.10,2013-03-25 16:16:00,
2013-03-25 09:31:00,44.0,31.0,30.02,NNE,22,0.0,5.0,61,0.00,,,0.00,weatherlink.com 1.10,2013-03-25 16:31:00,
2013-03-25 09:46:00,45.6,31.0,30.02,NNE,28,1.0,3.0,58,0.00,,,0.00,weatherlink.com 1.10,2013-03-25 16:46:00,
2013-03-25 10:01:00,47.8,31.0,30.02,ENE,63,2.0,5.0,52,0.00,,,0.00,weatherlink.com 1.10,2013-03-25 17:01:00,
2013-03-25 10:16:00,48.4,29.0,30.02,NE,40,5.0,7.0,48,0.00,,,0.00,weatherlink.com 1.10,2013-03-25 17:16:00,
2013-03-25 10:32:00,49.3,31.0,30.02,NE,55,5.0,7.0,49,0.00,,,0.00,weatherlink.com 1.10,2013-03-25 17:32:00,
2013-03-25 10:47:00,49.9,29.0,30.02,NNE,26,4.0,7.0,44,0.00,,,0.00,weatherlink.com 1.10,2013-03-25 17:47:00,
2013-03-25 11:02:00,50.7,28.0,30.01,NE,52,0.0,8.0,42,0.00,,,0.00,weatherlink.com 1.10,2013-03-25 18:02:00,
2013-03-25 11:17:00,51.2,29.0,30.01,ENE,60,1.0,6.0,43,0.00,,,0.00,weatherlink.com 1.10,2013-03-25 18:17:00,
2013-03-25 11:32:00,52.3,29.0,30.00,NE,36,2.0,9.0,41,0.00,,,0.00,weatherlink.com 1.10,2013-03-25 18:32:00,
2013-03-25 11:47:00,53.2,29.0,30.00,North,5,3.0,6.0,40,0.00,,,0.00,weatherlink.com 1.10,2013-03-25 18:47:00,
2013-03-25 12:02:00,53.7,29.0,30.00,NNE,18,3.0,6.0,39,0.00,,,0.00,weatherlink.com 1.10,2013-03-25 19:02:00,
2013-03-25 12:17:00,54.3,30.0,29.99,NNE,16,1.0,6.0,40,0.00,,,0.00,weatherlink.com 1.10,2013-03-25 19:17:00,
2013-03-25 12:32:00,54.4,30.0,29.98,NW,305,3.0,4.0,39,0.00,,,0.00,weatherlink.com 1.10,2013-03-25 19:32:00,
2013-03-25 12:47:00,54.9,29.0,29.98,NE,42,3.0,7.0,37,0.00,,,0.00,weatherlink.com 1.10,2013-03-25 19:47:00,
2013-03-25 13:02:00,55.3,29.0,29.98,WNW,289,0.0,7.0,36,0.00,,,0.00,weatherlink.com 1.10,2013-03-25 20:02:00,
2013-03-25 13:17:00,56.0,31.0,29.97,North,349,2.0,4.0,38,0.00,,,0.00,weatherlink.com 1.10,2013-03-25 20:17:00,
2013-03-25 13:32:00,56.3,29.0,29.96,ENE,59,2.0,7.0,35,0.00,,,0.00,weatherlink.com 1.10,2013-03-25 20:32:00,
2013-03-25 13:47:00,57.0,29.0,29.96,NE,41,3.0,8.0,34,0.00,,,0.00,weatherlink.com 1.10,2013-03-25 20:47:00,
2013-03-25 14:02:00,57.1,29.0,29.95,NE,41,0.0,8.0,34,0.00,,,0.00,weatherlink.com 1.10,2013-03-25 21:02:00,
2013-03-25 14:17:00,58.7,31.0,29.94,SSW,192,0.0,6.0,35,0.00,,,0.00,weatherlink.com 1.10,2013-03-25 21:17:00,
2013-03-25 14:32:00,58.7,31.0,29.93,NE,42,0.0,7.0,35,0.00,,,0.00,weatherlink.com 1.10,2013-03-25 21:32:00,
2013-03-25 14:47:00,59.1,31.0,29.93,ENE,57,5.0,9.0,34,0.00,,,0.00,weatherlink.com 1.10,2013-03-25 21:47:00,
2013-03-25 15:02:00,58.8,31.0,29.93,NE,44,1.0,7.0,35,0.00,,,0.00,weatherlink.com 1.10,2013-03-25 22:02:00,
2013-03-25 15:17:00,60.8,31.0,29.92,SSE,157,0.0,4.0,33,0.00,,,0.00,weatherlink.com 1.10,2013-03-25 22:17:00,
2013-03-25 15:32:00,61.3,33.0,29.92,NW,305,0.0,5.0,34,0.00,,,0.00,weatherlink.com 1.10,2013-03-25 22:32:00,
2013-03-25 15:47:00,62.1,33.0,29.91,ESE,111,1.0,3.0,34,0.00,,,0.00,weatherlink.com 1.10,2013-03-25 22:47:00,
2013-03-25 16:02:00,60.6,32.0,29.91,NNE,18,2.0,6.0,34,0.00,,,0.00,weatherlink.com 1.10,2013-03-25 23:02:00,
2013-03-25 16:17:00,60.7,33.0,29.91,NNW,347,0.0,4.0,35,0.00,,,0.00,weatherlink.com 1.10,2013-03-25 23:17:00,
2013-03-25 16:32:00,60.2,33.0,29.91,SSW,202,5.0,11.0,36,0.00,,,0.00,weatherlink.com 1.10,2013-03-25 23:32:00,
2013-03-25 16:47:00,59.3,32.0,29.90,West,260,2.0,11.0,36,0.00,,,0.00,weatherlink.com 1.10,2013-03-25 23:47:00,
2013-03-25 17:03:00,59.6,33.0,29.90,WNW,290,3.0,9.0,37,0.00,,,0.00,weatherlink.com 1.10,2013-03-26 00:03:00,
2013-03-25 17:18:00,59.3,33.0,29.90,SW,235,4.0,8.0,37,0.00,,,0.00,weatherlink.com 1.10,2013-03-26 00:18:00,
2013-03-25 17:33:00,59.0,33.0,29.89,WSW,242,3.0,9.0,38,0.00,,,0.00,weatherlink.com 1.10,2013-03-26 00:33:00,
2013-03-25 17:48:00,58.9,33.0,29.89,NW,312,0.0,5.0,38,0.00,,,0.00,weatherlink.com 1.10,2013-03-26 00:48:00,
2013-03-25 18:03:00,58.6,33.0,29.89,WSW,250,6.0,7.0,38,0.00,,,0.00,weatherlink.com 1.10,2013-03-26 01:03:00,
2013-03-25 18:18:00,57.7,33.0,29.89,WSW,243,4.0,7.0,39,0.00,,,0.00,weatherlink.com 1.10,2013-03-26 01:18:00,
2013-03-25 18:33:00,57.6,33.0,29.89,WNW,296,0.0,6.0,40,0.00,,,0.00,weatherlink.com 1.10,2013-03-26 01:33:00,
2013-03-25 18:48:00,57.4,33.0,29.89,NNE,14,0.0,6.0,40,0.00,,,0.00,weatherlink.com 1.10,2013-03-26 01:48:00,
2013-03-25 19:03:00,56.6,32.0,29.89,NW,319,0.0,6.0,40,0.00,,,0.00,weatherlink.com 1.10,2013-03-26 02:03:00,
2013-03-25 19:18:00,55.7,32.0,29.89,NNE,14,2.0,5.0,41,0.00,,,0.00,weatherlink.com 1.10,2013-03-26 02:18:00,
2013-03-25 19:33:00,54.9,32.0,29.89,NNW,331,1.0,4.0,42,0.00,,,0.00,weatherlink.com 1.10,2013-03-26 02:33:00,
2013-03-25 19:48:00,53.9,32.0,29.89,North,355,0.0,5.0,43,0.00,,,0.00,weatherlink.com 1.10,2013-03-26 02:48:00,
2013-03-25 20:03:00,53.1,32.0,29.89,North,355,0.0,3.0,45,0.00,,,0.00,weatherlink.com 1.10,2013-03-26 03:03:00,
2013-03-25 20:18:00,52.5,32.0,29.89,NNW,344,1.0,3.0,46,0.00,,,0.00,weatherlink.com 1.10,2013-03-26 03:18:00,
2013-03-25 20:33:00,51.9,33.0,29.90,NW,319,0.0,3.0,48,0.00,,,0.00,weatherlink.com 1.10,2013-03-26 03:33:00,
2013-03-25 20:48:00,51.7,32.0,29.90,NW,319,0.0,1.0,48,0.00,,,0.00,weatherlink.com 1.10,2013-03-26 03:48:00,
2013-03-25 21:03:00,51.4,33.0,29.90,NW,319,0.0,0.0,49,0.00,,,0.00,weatherlink.com 1.10,2013-03-26 04:03:00,
2013-03-25 21:18:00,51.2,32.0,29.91,NW,319,0.0,0.0,49,0.00,,,0.00,weatherlink.com 1.10,2013-03-26 04:18:00,
2013-03-25 21:33:00,51.2,32.0,29.91,NW,319,0.0,2.0,49,0.00,,,0.00,weatherlink.com 1.10,2013-03-26 04:33:00,
2013-03-25 21:48:00,50.7,33.0,29.91,NW,319,0.0,0.0,51,0.00,,,0.00,weatherlink.com 1.10,2013-03-26 04:48:00,
2013-03-25 22:03:00,50.2,33.0,29.91,NW,319,0.0,2.0,52,0.00,,,0.00,weatherlink.com 1.10,2013-03-26 05:03:00,
2013-03-25 22:18:00,49.5,33.0,29.91,NW,319,0.0,2.0,54,0.00,,,0.00,weatherlink.com 1.10,2013-03-26 05:18:00,
2013-03-25 22:33:00,47.9,34.0,29.91,NW,319,0.0,3.0,58,0.00,,,0.00,weatherlink.com 1.10,2013-03-26 05:33:00,
2013-03-25 22:48:00,47.4,34.0,29.91,NW,319,2.0,3.0,59,0.00,,,0.00,weatherlink.com 1.10,2013-03-26 05:48:00,
2013-03-25 23:03:00,47.4,34.0,29.91,NNW,342,2.0,3.0,60,0.00,,,0.00,weatherlink.com 1.10,2013-03-26 06:03:00,
2013-03-25 23:18:00,47.4,34.0,29.91,North,360,0.0,3.0,60,0.00,,,0.00,weatherlink.com 1.10,2013-03-26 06:18:00,
2013-03-25 23:33:00,47.5,34.0,29.91,North,11,1.0,5.0,60,0.00,,,0.00,weatherlink.com 1.10,2013-03-26 06:33:00,
2013-03-25 23:48:00,47.4,34.0,29.92,North,10,2.0,3.0,61,0.00,,,0.00,weatherlink.com 1.10,2013-03-26 06:48:00,